Pagrindinis puslapis
METAR-TAF:

METAR-TAF

Oro uostai :

Medanas, Šiaurės Sumatra, Indonezija

platuma: 03-34N, ilguma: 098-41E, Aukštis: 25 m

METAR: trūkstamas

Laikas: 03:37 (20:37 UTC)

Prognozė

Ataskaita buvo paskelbta 3 valandos ir 37 minutes, ne 17:00 UTC
Prognozė galioja nuo 20 metu 18 UTC su 21 metu 18 UTC
Vėjas 5 kt nuo kintamojo kryptimis
Matomumas: 1500 m
Išsisklaidę debesys ne aukštis 1800 ft
rūkana
Tapsmas
nuo 21 metu 03 UTC su 21 metu 05 UTC
Vėjas 10 kt iš Šiaurės Rytų
Matomumas: 4000 m
dūmai
Tapsmas
nuo 21 metu 10 UTC su 21 metu 12 UTC
Vėjas 5 kt nuo kintamojo kryptimis
Mažai debesys ne aukštis 1700 ft, Liūtiniai kamuoliniai debesys.
Išsisklaidę debesys ne aukštis 1800 ft
perkūnija, lietus

TAF: WIMM 201700Z 2018/2118 VRB05KT 1500 BR SCT018 BECMG 2103/2105 04010KT 4000 FU BECMG 2110/2112 VRB05KT -TSRA FEW017CB SCT018

Orai ataskaitas ir orų prognozės (METAR, TAF).

turimą stotys yra geltonos ir raudonos taškus žemėlapyje.

Perkelti pele per norėdami pamatyti stoties vardą.

Tada spustelėkite, norėdami matyti oro stebėjimo ir prognozės.

Norėdami pakeisti žemėlapį: spustelėkite ant žalios mygtukų su juodo kryžiaus žemyn,; žalią mygtuką su brūkšneliu, jei norite nutolinti; arba žalių rodyklių gretimoms žemėlapius.


METAR-TAF: